Umm Slal — V7PW3 — position and weather

sailwx.info

Track history (hours):
 
Tides and Currents Weather Stations Pressure Air Temp Water Temp Dewpoint Dewpoint Depression Visibility Wind Speed Wind Dir Waves Ship Positions

Umm Slal

Last reported at 2015-May-02 20:32 UTC. Time now 2015-May-03 16:53 UTC.
Position N 31°26' E 032°19'.

Length 345 m; draft 9.3 m.

Type: Ship (hazmat cat A). MMSI: 538003300.

Date/timePositionNaut miles runAvg speedWind from/ knotsBaromVisibWave heightAir tempDewpointWater temp
2015-May-02 20:32N 31°26' E 032°19'2 0.9
2015-May-02 18:21N 31°26' E 032°17'  
2015-Apr-30 09:05N 35°43' E 016°39'1018.3
2015-Apr-30 08:33N 35°45' E 016°28'1818.3
2015-Apr-30 07:33N 35°50' E 016°06'1818.5
2015-Apr-30 06:33N 35°55' E 015°44'1918.7
2015-Apr-30 05:33N 35°60' E 015°21'1818.2
2015-Apr-30 04:34N 36°04' E 014°60'1818.1
2015-Apr-30 03:34N 36°10' E 014°38'1818.1
2015-Apr-30 02:34N 36°16' E 014°17'1818.1
2015-Apr-30 01:34N 36°22' E 013°56'1818.4
2015-Apr-30 00:34N 36°29' E 013°35'1818.2
2015-Apr-29 23:33N 36°35' E 013°13'1818.1
2015-Apr-29 22:34N 36°43' E 012°53'1918.0
2015-Apr-29 21:31N 36°49' E 012°31'1818.3
2015-Apr-29 20:34N 36°57' E 012°11'1918.3
2015-Apr-29 19:33N 37°04' E 011°50'1818.2
2015-Apr-29 18:34N 37°12' E 011°29'1818.3
2015-Apr-29 17:33N 37°22' E 011°10'30618.0
2015-Apr-29 00:33N 37°43' E 004°45'1818.1
2015-Apr-28 23:33N 37°40' E 004°23'1818.3
2015-Apr-28 22:33N 37°38' E 003°60'1818.1
2015-Apr-28 21:33N 37°35' E 003°37'3818.1
2015-Apr-28 19:28N 37°31' E 002°50'8917.9
2015-Apr-28 14:29N 37°08' E 001°01'1718.3
2015-Apr-28 13:33N 37°02' E 000°41'1818.4
2015-Apr-28 12:33N 36°55' E 000°20'1918.6
2015-Apr-28 11:33N 36°49' W 000°02'3819.0
2015-Apr-28 09:32N 36°35' W 000°46'4519.1
2015-Apr-28 07:12N 36°24' W 001°40'1218.8
2015-Apr-28 06:33N 36°20' W 001°55'1918.5
2015-Apr-28 05:33N 36°16' W 002°17'14219.0
2015-Apr-27 22:06N 35°58' W 005°11'1121.0
2015-Apr-27 21:33N 35°57' W 005°25'25716.0
2015-Apr-27 05:30N 38°07' W 010°02'1819.3
2015-Apr-27 04:33N 38°25' W 010°07'1918.9
2015-Apr-27 03:33N 38°44' W 010°12'  
Track history (hours):
 
Tides and Currents Weather Stations Pressure Air Temp Water Temp Dewpoint Dewpoint Depression Visibility Wind Speed Wind Dir Waves Ship Positions

Umm Slal

Last reported at 2015-May-02 20:32 UTC. Time now 2015-May-03 16:53 UTC.
Position N 31°26' E 032°19'.

Length 345 m; draft 9.3 m.

Type: Ship (hazmat cat A). MMSI: 538003300.

Date/timePositionNaut miles runAvg speedWind from/ knotsBaromVisibWave heightAir tempDewpointWater temp
2015-May-02 20:32N 31°26' E 032°19'2 0.9
2015-May-02 18:21N 31°26' E 032°17'  
2015-Apr-30 09:05N 35°43' E 016°39'1018.3
2015-Apr-30 08:33N 35°45' E 016°28'1818.3
2015-Apr-30 07:33N 35°50' E 016°06'1818.5
2015-Apr-30 06:33N 35°55' E 015°44'1918.7
2015-Apr-30 05:33N 35°60' E 015°21'1818.2
2015-Apr-30 04:34N 36°04' E 014°60'1818.1
2015-Apr-30 03:34N 36°10' E 014°38'1818.1
2015-Apr-30 02:34N 36°16' E 014°17'1818.1
2015-Apr-30 01:34N 36°22' E 013°56'1818.4
2015-Apr-30 00:34N 36°29' E 013°35'1818.2
2015-Apr-29 23:33N 36°35' E 013°13'1818.1
2015-Apr-29 22:34N 36°43' E 012°53'1918.0
2015-Apr-29 21:31N 36°49' E 012°31'1818.3
2015-Apr-29 20:34N 36°57' E 012°11'1918.3
2015-Apr-29 19:33N 37°04' E 011°50'1818.2
2015-Apr-29 18:34N 37°12' E 011°29'1818.3
2015-Apr-29 17:33N 37°22' E 011°10'30618.0
2015-Apr-29 00:33N 37°43' E 004°45'1818.1
2015-Apr-28 23:33N 37°40' E 004°23'1818.3
2015-Apr-28 22:33N 37°38' E 003°60'1818.1
2015-Apr-28 21:33N 37°35' E 003°37'3818.1
2015-Apr-28 19:28N 37°31' E 002°50'8917.9
2015-Apr-28 14:29N 37°08' E 001°01'1718.3
2015-Apr-28 13:33N 37°02' E 000°41'1818.4
2015-Apr-28 12:33N 36°55' E 000°20'1918.6
2015-Apr-28 11:33N 36°49' W 000°02'3819.0
2015-Apr-28 09:32N 36°35' W 000°46'4519.1
2015-Apr-28 07:12N 36°24' W 001°40'1218.8
2015-Apr-28 06:33N 36°20' W 001°55'1918.5
2015-Apr-28 05:33N 36°16' W 002°17'14219.0
2015-Apr-27 22:06N 35°58' W 005°11'1121.0
2015-Apr-27 21:33N 35°57' W 005°25'25716.0
2015-Apr-27 05:30N 38°07' W 010°02'1819.3
2015-Apr-27 04:33N 38°25' W 010°07'1918.9
2015-Apr-27 03:33N 38°44' W 010°12'  

Dump ship's entire track history